Latest Weather Observations for Barimunya

IDW60801

Issued at 7:02 pm WST Sunday 29 May 2016 (issued every 30 minutes, with the page automatically refreshed every 10 minutes)

About weather observations | Map of weather stations | Latest weather observations for WA | Other Formats
Station Details ID: 505053 Name: BARIMUNYA Lat: -22.67 Lon: 119.16 Height: 629.17 m
Data from the previous 72 hours. | See also: Recent months for locations in Western Australia
Date/Time
WST
Temp
°C
App
Temp
°C
Dew
Point
Rel
Hum
%
Delta-T
°C
Wind Press
QNH
hPa
Press
MSL
hPa
Rain
since 9 am
mm
Dir
 
Spd
km/h
Gust
km/h
Spd
kts
Gust
kts
29/07:00pm 22.0 23.1 13.6 59 5.0 CALM 0 6 0 3 1015.2 1012.7 0.2
29/06:30pm 22.7 23.4 13.5 56 5.5 NNW 2 7 1 4 1015.0 1012.5 0.2
29/06:00pm 23.8 24.3 11.5 46 7.1 CALM 0 0 0 0 1014.9 1012.4 0.2
29/05:30pm 24.6 23.7 11.5 44 7.6 NNW 7 11 4 6 1014.8 1012.3 0.2
29/05:00pm 25.7 24.0 11.1 40 8.5 N 11 17 6 9 1014.6 1012.1 0.2
29/04:30pm 26.1 24.5 11.5 40 8.5 N 11 19 6 10 1014.5 1012.0 0.2
29/04:00pm 26.6 25.6 11.1 38 9.0 NNW 7 17 4 9 1014.3 1011.7 0.2
29/03:30pm 26.6 26.5 10.7 37 9.2 NW 2 9 1 5 1014.2 1011.6 0.2
29/03:00pm 26.2 25.1 10.8 38 8.9 SE 7 13 4 7 1014.2 1011.6 0.2
29/02:30pm 26.3 25.2 10.5 37 9.1 WSW 7 11 4 6 1014.2 1011.6 0.2
29/02:00pm 25.5 24.8 11.3 41 8.3 ESE 6 15 3 8 1014.2 1011.6 0.2
29/01:30pm 25.5 23.9 11.7 42 8.1 E 11 15 6 8 1014.3 1011.7 0.2
29/01:00pm 24.9 23.2 11.1 42 8.0 ESE 11 19 6 10 1014.9 1012.4 0.2
29/12:30pm 24.4 23.1 11.4 44 7.5 ESE 9 15 5 8 1015.5 1013.0 0.2
29/12:00pm 23.6 22.4 11.6 47 6.9 SE 9 17 5 9 1016.0 1013.5 0.2
29/11:30am 22.7 21.8 11.4 49 6.5 ESE 7 15 4 8 1016.5 1014.0 0.2
29/11:00am 22.6 21.0 11.4 49 6.4 ESE 11 17 6 9 1016.9 1014.4 0.2
29/10:30am 22.1 21.1 10.9 49 6.4 SE 7 13 4 7 1017.1 1014.7 0.2
29/10:00am 20.9 19.1 9.5 48 6.3 SE 9 15 5 8 1017.4 1014.9 0.0
29/09:30am 20.4 18.6 9.3 49 6.1 ESE 9 15 5 8 1017.7 1015.2 0.0
29/09:00am 19.9 17.7 9.2 50 5.8 SSE 11 15 6 8 1017.6 1015.1 6.6
29/08:30am 18.6 16.2 8.8 53 5.3 SE 11 15 6 8 1017.4 1014.9 6.6
29/08:00am 17.7 15.7 8.8 56 4.7 S 9 13 5 7 1017.4 1014.9 6.6
29/07:30am 16.8 15.0 9.5 62 3.9 S 9 13 5 7 1017.1 1014.7 6.6
29/07:00am 16.0 14.9 10.5 70 3.0 S 7 9 4 5 1017.0 1014.5 6.6
29/06:30am 16.1 15.4 11.3 73 2.7 SSE 6 7 3 4 1016.6 1014.1 6.6
29/06:00am 15.4 16.4 13.2 87 1.3 CALM 0 0 0 0 1016.3 1013.8 6.6
29/05:30am 15.6 16.5 14.0 90 0.9 S 2 7 1 4 1016.2 1013.7 6.6
29/05:00am 16.1 17.2 14.5 90 0.9 S 2 9 1 5 1016.0 1013.5 6.6
29/04:30am 16.3 17.9 15.0 92 0.8 CALM 0 0 0 0 1015.8 1013.3 6.6
29/04:00am 16.6 18.2 15.0 90 1.0 CALM 0 0 0 0 1015.5 1013.0 6.6
29/03:30am 16.6 18.3 15.1 91 0.9 CALM 0 0 0 0 1015.5 1013.0 6.6
29/03:00am 17.4 19.0 14.9 85 1.5 CALM 0 0 0 0 1015.3 1012.8 6.6
29/02:30am 17.0 18.8 15.5 91 0.9 CALM 0 0 0 0 1015.4 1012.9 6.6
29/02:00am 17.6 19.6 16.1 91 0.9 CALM 0 2 0 1 1015.4 1012.9 6.6
29/01:30am 17.8 19.6 15.6 87 1.3 CALM 0 0 0 0 1015.5 1013.0 6.6
29/01:00am 18.2 20.2 16.0 87 1.3 CALM 0 0 0 0 1015.7 1013.1 6.6
29/12:30am 18.7 20.9 16.5 87 1.4 CALM 0 4 0 2 1015.8 1013.3 6.6
29/12:00am 19.6 21.9 16.8 84 1.7 CALM 0 0 0 0 1015.9 1013.4 6.6
 
Date/Time
WST
Temp
°C
App
Temp
°C
Dew
Point
Rel
Hum
%
Delta-T
°C
Wind Press
QNH
hPa
Press
MSL
hPa
Rain
since 9 am
mm
Dir
 
Spd
km/h
Gust
km/h
Spd
kts
Gust
kts
28/11:30pm 19.7 21.6 16.7 83 1.9 SSE 2 6 1 3 1016.3 1013.8 6.6
28/11:00pm 20.8 21.9 15.6 72 3.2 SSE 4 11 2 6 1016.5 1014.0 6.6
28/10:30pm 20.7 21.6 16.1 75 2.8 SSE 6 9 3 5 1016.6 1014.1 6.6
28/10:00pm 21.0 22.6 16.8 77 2.6 SSW 4 7 2 4 1016.7 1014.2 6.6
28/09:30pm 21.4 23.1 17.2 77 2.6 ENE 4 9 2 5 1016.7 1014.2 6.6
28/09:00pm 21.6 23.1 16.6 73 3.1 ENE 4 11 2 6 1016.9 1014.4 6.6
28/08:30pm 21.4 22.4 17.8 80 2.3 ESE 9 13 5 7 1016.7 1014.2 6.6
28/08:00pm 21.5 23.4 17.7 79 2.4 SSW 4 11 2 6 1016.7 1014.2 6.6
28/07:30pm 21.3 21.8 16.5 74 3.0 W 9 17 5 9 1016.4 1013.9 6.6
28/07:00pm 20.6 21.3 18.0 85 1.7 ESE 11 15 6 8 1015.5 1013.0 6.6
28/06:41pm 20.9 21.7 17.3 80 2.3 WSW 9 15 5 8 1015.7 1013.1 6.0
28/06:30pm 21.4 22.8 16.4 73 3.1 NE 4 9 2 5 1015.7 1013.1 4.8
28/06:18pm 23.9 25.6 15.1 58 5.4 CALM 0 6 0 3 1015.2 1012.7 1.8
28/06:00pm 23.9 22.8 13.2 51 6.4 NNE 11 19 6 10 1014.6 1012.1 0.0
28/05:30pm 24.5 22.0 13.4 50 6.7 NNW 19 28 10 15 1014.4 1011.9 0.0
28/05:00pm 27.2 25.9 12.4 40 8.8 NW 11 17 6 9 1014.1 1011.5 0.0
28/04:30pm 27.5 26.1 12.3 39 9.1 NW 11 15 6 8 1013.8 1011.3 0.0
28/04:00pm 27.9 26.4 11.9 37 9.5 N 11 20 6 11 1013.7 1011.2 0.0
28/03:30pm 28.8 26.5 11.8 35 10.1 NNW 15 20 8 11 1013.8 1011.3 0.0
28/03:00pm 29.1 26.9 12.1 35 10.2 NNW 15 24 8 13 1013.8 1011.3 0.0
28/02:30pm 28.5 25.9 12.0 36 9.8 NNW 17 22 9 12 1014.2 1011.6 0.0
28/02:00pm 28.4 25.8 11.9 36 9.8 N 17 30 9 16 1014.3 1011.7 0.0
28/01:30pm 27.5 25.5 11.5 37 9.4 NNW 13 26 7 14 1014.8 1012.3 0.0
28/01:00pm 27.4 25.4 11.4 37 9.4 NNW 13 24 7 13 1015.3 1012.8 0.0
28/12:30pm 26.9 24.1 11.4 38 9.1 N 17 24 9 13 1015.7 1013.1 0.0
28/12:00pm 26.1 24.3 12.2 42 8.2 N 13 22 7 12 1016.3 1013.8 0.0
28/11:30am 24.9 23.6 11.1 42 8.0 N 9 17 5 9 1016.8 1014.3 0.0
28/11:00am 25.0 22.8 10.8 41 8.2 NNE 13 24 7 13 1017.4 1014.9 0.0
28/10:30am 24.5 21.5 10.8 42 7.9 NNE 17 24 9 13 1017.9 1015.4 0.0
28/10:00am 23.7 21.1 10.7 44 7.4 NNE 15 19 8 10 1018.2 1015.7 0.0
28/09:30am 22.7 20.5 10.8 47 6.8 NNE 13 19 7 10 1018.5 1016.1 0.0
28/09:00am 22.0 19.9 9.9 46 6.7 NE 11 19 6 10 1018.8 1016.4 0.0
28/08:30am 21.1 18.6 8.4 44 6.9 E 11 15 6 8 1018.8 1016.4 0.0
28/08:00am 19.9 17.0 8.3 47 6.2 ESE 13 15 7 8 1018.5 1016.1 0.0
28/07:30am 19.3 17.3 8.6 50 5.7 SE 9 11 5 6 1018.6 1016.2 0.0
28/07:00am 19.1 17.1 8.7 51 5.6 E 9 11 5 6 1018.2 1015.7 0.0
28/06:30am 18.2 16.8 8.7 54 5.1 E 6 9 3 5 1018.0 1015.5 0.0
28/06:00am 18.9 16.5 8.8 52 5.4 ENE 11 13 6 7 1018.0 1015.5 0.0
28/05:30am 18.7 16.0 8.9 53 5.3 ENE 13 15 7 8 1017.9 1015.4 0.0
28/05:00am 18.4 16.9 9.2 55 5.0 E 7 13 4 7 1017.8 1015.3 0.0
28/04:30am 17.6 17.4 9.0 57 4.6 CALM 0 0 0 0 1017.9 1015.4 0.0
28/04:00am 18.8 16.9 9.0 53 5.3 E 9 9 5 5 1017.8 1015.3 0.0
28/03:30am 18.7 17.1 8.9 53 5.3 E 7 11 4 6 1017.9 1015.4 0.0
28/03:00am 19.3 19.1 9.2 52 5.5 CALM 0 7 0 4 1018.0 1015.5 0.0
28/02:30am 19.9 17.7 9.2 50 5.8 E 11 13 6 7 1018.0 1015.5 0.0
28/02:00am 20.7 19.2 9.3 48 6.2 ESE 7 13 4 7 1018.2 1015.7 0.0
28/01:30am 21.3 20.0 9.2 46 6.6 SE 6 9 3 5 1018.7 1016.3 0.0
28/01:00am 21.3 19.8 9.2 46 6.6 E 7 11 4 6 1018.4 1015.9 0.0
28/12:30am 21.4 19.6 9.3 46 6.7 E 9 13 5 7 1018.4 1015.9 0.0
28/12:00am 21.7 19.5 9.3 45 6.8 E 11 15 6 8 1018.5 1016.1 0.0
 
Date/Time
WST
Temp
°C
App
Temp
°C
Dew
Point
Rel
Hum
%
Delta-T
°C
Wind Press
QNH
hPa
Press
MSL
hPa
Rain
since 9 am
mm
Dir
 
Spd
km/h
Gust
km/h
Spd
kts
Gust
kts
27/11:30pm 22.0 19.8 9.5 45 6.9 E 11 15 6 8 1018.6 1016.2 0.0
27/11:00pm 22.2 19.6 9.4 44 7.1 ENE 13 19 7 10 1018.6 1016.2 0.0
27/10:30pm 22.9 20.3 9.3 42 7.5 ENE 13 20 7 11 1019.1 1016.6 0.0
27/10:00pm 22.9 20.3 9.3 42 7.5 E 13 17 7 9 1019.2 1016.7 0.0
27/09:30pm 23.1 20.8 9.1 41 7.7 E 11 15 6 8 1019.2 1016.7 0.0
27/09:00pm 23.3 20.6 9.0 40 7.9 ESE 13 17 7 9 1019.2 1016.7 0.0
27/08:30pm 23.5 20.1 9.1 40 8.0 ESE 17 22 9 12 1019.1 1016.6 0.0
27/08:00pm 23.4 21.1 9.0 40 8.0 ESE 11 15 6 8 1018.7 1016.3 0.0
27/07:30pm 23.8 21.6 9.4 40 8.0 E 11 15 6 8 1018.6 1016.2 0.0
27/07:00pm 24.1 22.4 9.7 40 8.1 ENE 9 13 5 7 1018.3 1015.8 0.0
27/06:30pm 24.4 23.0 9.6 39 8.3 ENE 7 11 4 6 1018.2 1015.7 0.0
27/06:00pm 25.0 22.9 9.7 38 8.6 ENE 11 15 6 8 1017.9 1015.4 0.0
27/05:30pm 25.4 23.3 9.7 37 8.9 NE 11 15 6 8 1017.9 1015.4 0.0
27/05:00pm 25.9 23.4 9.7 36 9.2 NE 13 19 7 10 1017.5 1015.0 0.0
27/04:30pm 26.7 24.3 10.0 35 9.6 NE 13 22 7 12 1017.4 1014.9 0.0
27/04:00pm 26.4 23.5 9.7 35 9.5 NE 15 24 8 13 1017.1 1014.7 0.0
27/03:30pm 25.8 22.9 9.6 36 9.2 E 15 22 8 12 1017.4 1014.9 0.0
27/03:00pm 25.7 23.1 9.5 36 9.1 ENE 13 24 7 13 1017.6 1015.1 0.0
27/02:30pm 26.1 23.7 9.9 36 9.2 NE 13 20 7 11 1018.0 1015.5 0.0
27/02:00pm 26.3 23.4 9.6 35 9.5 ENE 15 24 8 13 1018.2 1015.7 0.0
27/01:30pm 25.6 22.3 9.4 36 9.1 E 17 26 9 14 1018.3 1015.8 0.0
27/01:00pm 25.0 21.7 9.7 38 8.6 ENE 17 26 9 14 1018.9 1016.5 0.0
27/12:30pm 24.2 20.4 9.0 38 8.4 E 19 33 10 18 1019.6 1017.1 0.0
27/12:00pm 24.1 20.2 9.3 39 8.2 ESE 20 30 11 16 1020.0 1017.6 0.0
27/11:30am 23.0 18.7 9.4 42 7.6 ESE 22 32 12 17 1020.4 1018.0 0.0
27/11:00am 21.9 17.6 9.4 45 6.9 E 22 33 12 18 1020.9 1018.4 0.0
27/10:30am 21.4 16.7 9.3 46 6.7 E 24 33 13 18 1021.5 1019.1 0.0
27/10:00am 21.3 15.8 9.2 46 6.6 E 28 37 15 20 1021.6 1019.2 0.0
27/09:30am 20.4 15.6 8.7 47 6.3 E 24 39 13 21 1021.8 1019.4 0.0
27/09:00am 19.7 13.3 8.7 49 5.9 ESE 32 39 17 21 1022.0 1019.6 0.0
27/08:30am 19.3 13.3 8.6 50 5.7 ESE 30 39 16 21 1022.0 1019.6 0.0
27/08:00am 18.8 12.8 8.7 52 5.4 SE 30 37 16 20 1021.8 1019.4 0.0
27/07:30am 18.1 13.3 8.9 55 4.9 SE 24 32 13 17 1021.4 1019.0 0.0
27/07:00am 17.7 13.3 9.1 57 4.6 ESE 22 28 12 15 1020.9 1018.4 0.0
27/06:30am 17.8 13.8 9.2 57 4.6 SE 20 28 11 15 1020.6 1018.2 0.0
27/06:00am 18.0 14.1 9.4 57 4.6 SE 20 28 11 15 1020.3 1017.9 0.0
27/05:30am 18.2 13.9 9.3 56 4.8 SE 22 28 12 15 1020.0 1017.6 0.0
27/05:00am 18.5 14.6 9.6 56 4.8 SE 20 28 11 15 1019.7 1017.2 0.0
27/04:30am 18.8 15.1 10.1 57 4.8 SE 20 28 11 15 1019.5 1017.0 0.0
27/04:00am 19.1 14.2 10.1 56 5.0 SE 26 33 14 18 1018.9 1016.5 0.0
27/03:30am 19.4 15.2 9.6 53 5.4 SE 22 30 12 16 1019.2 1016.7 0.0
27/03:00am 19.5 16.5 9.1 51 5.6 SE 15 20 8 11 1019.1 1016.6 0.0
27/02:30am 19.5 16.8 9.1 51 5.6 SE 13 19 7 10 1019.2 1016.7 0.0
27/02:00am 20.0 16.3 9.3 50 5.8 SSE 19 24 10 13 1019.3 1016.8 0.0
27/01:30am 20.3 17.8 9.8 51 5.8 SSE 13 17 7 9 1019.6 1017.1 0.0
27/01:00am 20.5 18.2 10.6 53 5.5 SSE 13 19 7 10 1019.8 1017.3 0.0
27/12:30am 20.9 18.8 11.0 53 5.6 S 13 17 7 9 1019.8 1017.3 0.0
27/12:00am 21.5 19.8 12.4 56 5.3 S 13 17 7 9 1019.6 1017.1 0.0
 
Date/Time
WST
Temp
°C
App
Temp
°C
Dew
Point
Rel
Hum
%
Delta-T
°C
Wind Press
QNH
hPa
Press
MSL
hPa
Rain
since 9 am
mm
Dir
 
Spd
km/h
Gust
km/h
Spd
kts
Gust
kts
26/11:30pm 21.6 20.4 12.7 57 5.2 SSE 11 13 6 7 1019.7 1017.2 0.0
26/11:00pm 21.6 20.4 12.7 57 5.2 SSE 11 15 6 8 1019.6 1017.1 0.0
26/10:30pm 22.2 20.2 12.7 55 5.6 S 15 19 8 10 1019.3 1016.8 0.0
26/10:00pm 22.5 20.9 12.7 54 5.7 SSE 13 19 7 10 1019.3 1016.8 0.0
26/09:30pm 22.8 21.4 13.3 55 5.6 SSE 13 19 7 10 1019.3 1016.8 0.0
26/09:00pm 23.2 21.8 13.4 54 5.8 S 13 15 7 8 1019.2 1016.7 0.0
26/08:30pm 23.6 22.9 13.2 52 6.2 S 9 15 5 8 1019.1 1016.6 0.0
26/08:00pm 24.3 22.8 13.2 50 6.6 SSE 13 15 7 8 1019.1 1016.6 0.0
26/07:30pm 24.6 24.0 13.5 50 6.7 SSE 9 13 5 7 1018.6 1016.2 0.0

Other Formats:

Comma delimited format used in spreadsheet applications
http://www.bom.gov.au/fwo/IDW60801/IDW60801.99313.axf

JavaScript Object Notation format (JSON) in row-major order
http://www.bom.gov.au/fwo/IDW60801/IDW60801.99313.json